Time;durP1;ratioP1;P1;durP2;ratioP2;P2;SDS_P1;SDS_P2;PMS_P1;PMS_P2;Temp;Humidity;BMP_temperature;BMP_pressure;BME280_temperature;BME280_humidity;BME280_pressure;Samples;Min_cycle;Max_cycle;Signal;HPM_P1;HPM_P2
2023/05/24 00:00:41;;;;;;;22.25;5.57;;;8.70;99.90;;;;;;5037476;28;20052;-56
2023/05/24 00:03:07;;;;;;;25.73;5.95;;;8.70;99.90;;;;;;5037032;28;20156;-55
2023/05/24 00:05:36;;;;;;;23.75;5.88;;;8.70;99.90;;;;;;5039048;28;20138;-54
2023/05/24 00:08:02;;;;;;;26.13;6.03;;;8.70;99.90;;;;;;5037025;28;20481;-56
2023/05/24 00:10:28;;;;;;;26.77;6.25;;;8.70;99.90;;;;;;5042882;28;20045;-54
2023/05/24 00:12:54;;;;;;;25.10;6.00;;;8.80;99.90;;;;;;5037851;28;20052;-55
2023/05/24 00:15:19;;;;;;;28.48;6.82;;;8.80;99.90;;;;;;5038877;28;20037;-56
2023/05/24 00:17:45;;;;;;;25.08;6.38;;;8.80;99.90;;;;;;5038689;28;20049;-56
2023/05/24 00:20:12;;;;;;;27.10;5.70;;;8.90;99.90;;;;;;5022824;28;20131;-55
2023/05/24 00:22:39;;;;;;;26.90;5.95;;;8.90;99.90;;;;;;5039085;28;20709;-55
2023/05/24 00:25:06;;;;;;;27.55;6.22;;;8.90;99.90;;;;;;5039329;28;20099;-55
2023/05/24 00:27:32;;;;;;;23.77;5.57;;;9.00;99.90;;;;;;5037851;28;20396;-56
2023/05/24 00:29:58;;;;;;;24.08;6.07;;;9.00;99.90;;;;;;5034148;28;20045;-55
2023/05/24 00:32:24;;;;;;;34.58;5.97;;;9.10;99.90;;;;;;5028639;28;20052;-56
2023/05/24 00:34:49;;;;;;;25.90;5.88;;;9.10;99.90;;;;;;5050957;28;20049;-56
2023/05/24 00:37:16;;;;;;;29.13;5.50;;;9.10;99.90;;;;;;5039238;28;20443;-57
2023/05/24 00:39:42;;;;;;;29.08;6.32;;;9.10;99.90;;;;;;5044446;28;20041;-56
2023/05/24 00:42:08;;;;;;;28.02;6.35;;;9.20;99.90;;;;;;5037856;28;20053;-56
2023/05/24 00:44:34;;;;;;;32.45;6.13;;;9.10;99.90;;;;;;5037574;28;20077;-57
2023/05/24 00:47:00;;;;;;;27.45;6.13;;;9.10;99.90;;;;;;5035838;28;20045;-56
2023/05/24 00:49:26;;;;;;;24.92;5.90;;;9.20;99.90;;;;;;5032171;28;20041;-55
2023/05/24 00:51:53;;;;;;;25.67;5.65;;;9.10;99.90;;;;;;5041204;28;20048;-57
2023/05/24 00:54:19;;;;;;;18.05;5.47;;;9.10;99.90;;;;;;5040637;28;20094;-56
2023/05/24 00:56:46;;;;;;;20.10;5.85;;;9.10;99.90;;;;;;5027448;28;20044;-57
2023/05/24 00:59:13;;;;;;;31.33;6.28;;;9.00;99.90;;;;;;5040268;28;20045;-57
2023/05/24 01:01:40;;;;;;;20.27;5.40;;;9.10;99.90;;;;;;5034095;28;20120;-56
2023/05/24 01:04:06;;;;;;;25.17;5.25;;;9.10;99.90;;;;;;5034540;28;20057;-56
2023/05/24 01:06:43;;;;;;;23.83;6.00;;;9.10;99.90;;;;;;5029969;28;20106;-56
2023/05/24 01:09:21;;;;;;;22.83;5.95;;;9.00;99.90;;;;;;5029724;28;20044;-56
2023/05/24 01:12:06;;;;;;;26.35;6.07;;;9.10;99.90;;;;;;5042058;28;20392;-57
2023/05/24 01:14:47;;;;;;;23.75;5.60;;;9.10;99.90;;;;;;5038168;28;20045;-55
2023/05/24 01:17:25;;;;;;;23.85;5.60;;;9.00;99.90;;;;;;5034632;28;20074;-57
2023/05/24 01:20:05;;;;;;;30.35;6.35;;;9.00;99.90;;;;;;5040581;28;20535;-56
2023/05/24 01:23:05;;;;;;;30.27;6.15;;;9.10;99.90;;;;;;5041258;28;20041;-56
2023/05/24 01:25:52;;;;;;;21.27;5.38;;;9.10;99.90;;;;;;5042844;28;20059;-56
2023/05/24 01:28:19;;;;;;;20.42;5.30;;;9.00;99.90;;;;;;5042612;28;20040;-56
2023/05/24 01:30:45;;;;;;;23.23;5.47;;;9.00;99.90;;;;;;5039965;28;20400;-55
2023/05/24 01:33:11;;;;;;;22.42;5.70;;;9.00;99.90;;;;;;5038485;28;20053;-56
2023/05/24 01:35:40;;;;;;;23.65;6.35;;;9.00;99.90;;;;;;5041617;28;20378;-57
2023/05/24 01:38:06;;;;;;;20.83;5.03;;;9.00;99.90;;;;;;5037822;28;20049;-56
2023/05/24 01:40:32;;;;;;;22.48;5.78;;;8.90;99.90;;;;;;5054777;28;20071;-56
2023/05/24 01:43:34;;;;;;;21.85;5.45;;;8.90;99.90;;;;;;5040963;28;20038;-57
2023/05/24 01:46:24;;;;;;;20.92;5.35;;;8.90;99.90;;;;;;5031715;28;20338;-56
2023/05/24 01:48:52;;;;;;;24.52;5.25;;;8.80;99.90;;;;;;5038842;28;20048;-57
2023/05/24 01:51:22;;;;;;;29.13;5.63;;;8.80;99.90;;;;;;5033030;28;20072;-57
2023/05/24 01:53:49;;;;;;;34.60;6.50;;;8.70;99.90;;;;;;5032552;28;20037;-56
2023/05/24 01:56:16;;;;;;;28.63;5.85;;;8.70;99.90;;;;;;5030620;28;20724;-54
2023/05/24 01:58:44;;;;;;;20.15;5.35;;;8.70;99.90;;;;;;5035864;28;20057;-57
2023/05/24 02:01:12;;;;;;;29.45;7.43;;;8.70;99.90;;;;;;5034114;28;20505;-56
2023/05/24 02:03:38;;;;;;;26.92;5.78;;;8.70;99.90;;;;;;5033302;28;20468;-56
2023/05/24 02:06:04;;;;;;;27.38;6.03;;;8.70;99.90;;;;;;5018232;28;20040;-55
2023/05/24 02:08:30;;;;;;;29.38;6.03;;;8.70;99.90;;;;;;5022549;28;20586;-56
2023/05/24 02:10:56;;;;;;;27.38;5.45;;;8.70;99.90;;;;;;5020652;28;20041;-56
2023/05/24 02:13:21;;;;;;;28.33;5.90;;;8.70;99.90;;;;;;5039934;28;20045;-56
2023/05/24 02:15:47;;;;;;;23.27;5.53;;;8.70;99.90;;;;;;5031498;28;20044;-57
2023/05/24 02:18:13;;;;;;;21.42;5.78;;;8.70;99.90;;;;;;5036468;28;20041;-55
2023/05/24 02:20:39;;;;;;;20.52;5.65;;;8.70;99.90;;;;;;5033773;28;20047;-57
2023/05/24 02:23:08;;;;;;;21.75;5.30;;;8.70;99.90;;;;;;5034241;28;20094;-56
2023/05/24 02:25:34;;;;;;;19.45;4.78;;;8.80;99.90;;;;;;5042918;28;20083;-55
2023/05/24 02:27:59;;;;;;;20.73;4.57;;;8.80;99.90;;;;;;5038355;28;20092;-57
2023/05/24 02:30:25;;;;;;;31.52;5.82;;;8.80;99.90;;;;;;5036232;28;20041;-55
2023/05/24 02:32:51;;;;;;;25.38;5.35;;;8.90;99.90;;;;;;5028581;28;20128;-56
2023/05/24 02:35:17;;;;;;;27.02;5.53;;;8.90;99.90;;;;;;5031480;28;20051;-56
2023/05/24 02:37:43;;;;;;;22.05;4.72;;;9.00;99.90;;;;;;5031539;28;20072;-55
2023/05/24 02:40:09;;;;;;;20.02;4.57;;;9.00;99.90;;;;;;5029975;28;20830;-55
2023/05/24 02:42:35;;;;;;;17.70;4.57;;;9.00;99.90;;;;;;5032226;28;20033;-57
2023/05/24 02:45:01;;;;;;;27.98;5.97;;;9.10;99.90;;;;;;5027924;28;20041;-56
2023/05/24 02:47:27;;;;;;;24.50;5.38;;;9.10;99.90;;;;;;5030914;28;20049;-55
2023/05/24 02:49:53;;;;;;;32.50;5.88;;;9.10;99.90;;;;;;5032205;28;20041;-54
2023/05/24 02:52:22;;;;;;;24.88;5.30;;;9.20;99.90;;;;;;5031681;28;20029;-57
2023/05/24 02:54:48;;;;;;;23.40;5.18;;;9.20;99.90;;;;;;5030574;28;20375;-55
2023/05/24 02:57:15;;;;;;;20.00;4.70;;;9.20;99.90;;;;;;5030510;28;20111;-56
2023/05/24 02:59:42;;;;;;;26.23;5.38;;;9.30;99.90;;;;;;5031947;28;20045;-56
2023/05/24 03:02:08;;;;;;;25.05;5.47;;;9.30;99.90;;;;;;5032251;28;20068;-57
2023/05/24 03:04:34;;;;;;;22.95;5.00;;;9.40;99.90;;;;;;5034744;28;20183;-57
2023/05/24 03:07:00;;;;;;;26.83;5.20;;;9.40;99.90;;;;;;5026196;28;20405;-56
2023/05/24 03:09:26;;;;;;;29.92;5.68;;;9.40;99.90;;;;;;5032012;28;20051;-56
2023/05/24 03:11:53;;;;;;;26.70;5.10;;;9.50;99.90;;;;;;5033214;28;20070;-57
2023/05/24 03:14:21;;;;;;;22.25;5.10;;;9.50;99.90;;;;;;5034993;28;20045;-56
2023/05/24 03:16:47;;;;;;;26.30;4.68;;;9.50;99.90;;;;;;5028294;28;20087;-55
2023/05/24 03:19:16;;;;;;;25.25;6.43;;;9.50;99.90;;;;;;5039114;28;20049;-55
2023/05/24 03:21:42;;;;;;;31.60;4.78;;;9.50;99.90;;;;;;5044871;28;20041;-55
2023/05/24 03:24:08;;;;;;;25.33;4.75;;;9.50;99.90;;;;;;5039344;28;20056;-57
2023/05/24 03:26:34;;;;;;;23.05;4.72;;;9.50;99.90;;;;;;5036785;28;20049;-55
2023/05/24 03:29:00;;;;;;;21.33;4.55;;;9.50;99.90;;;;;;5039524;28;20106;-57
2023/05/24 03:31:25;;;;;;;17.30;4.20;;;9.50;99.90;;;;;;5041510;28;20110;-56
2023/05/24 03:33:51;;;;;;;20.23;4.53;;;9.50;99.90;;;;;;5040557;28;20041;-57
2023/05/24 03:36:17;;;;;;;24.50;4.60;;;9.60;99.90;;;;;;5036705;28;20075;-56
2023/05/24 03:38:43;;;;;;;27.33;4.57;;;9.60;99.90;;;;;;5041489;28;20042;-56
2023/05/24 03:41:09;;;;;;;31.90;5.18;;;9.60;99.90;;;;;;5040551;28;20052;-56
2023/05/24 03:43:35;;;;;;;25.10;5.03;;;9.60;99.90;;;;;;5037543;28;22406;-54
2023/05/24 03:46:01;;;;;;;24.63;4.28;;;9.60;99.90;;;;;;5037116;28;20052;-57
2023/05/24 03:48:26;;;;;;;24.20;5.15;;;9.70;99.90;;;;;;5032717;28;20178;-56
2023/05/24 03:50:52;;;;;;;27.25;5.13;;;9.70;99.90;;;;;;5033358;28;20029;-57
2023/05/24 03:53:18;;;;;;;27.40;5.25;;;9.70;99.90;;;;;;5036417;28;20038;-56
2023/05/24 03:55:44;;;;;;;22.20;4.72;;;9.70;99.90;;;;;;5036798;28;20853;-55
2023/05/24 03:58:11;;;;;;;21.45;5.07;;;9.70;99.90;;;;;;5029873;28;20069;-55
2023/05/24 04:00:37;;;;;;;25.45;4.80;;;9.80;99.90;;;;;;5038927;28;20091;-56
2023/05/24 04:03:05;;;;;;;21.13;4.90;;;9.80;99.90;;;;;;5037607;28;20473;-57
2023/05/24 04:05:32;;;;;;;25.05;5.97;;;9.80;99.90;;;;;;5037891;28;20041;-56
2023/05/24 04:07:58;;;;;;;28.15;5.32;;;9.80;99.90;;;;;;5036916;28;20037;-57
2023/05/24 04:10:24;;;;;;;27.55;5.30;;;9.80;99.90;;;;;;5036725;28;22441;-57
2023/05/24 04:12:49;;;;;;;20.48;5.10;;;9.90;99.90;;;;;;5032239;28;20370;-56
2023/05/24 04:18:56;;;;;;;25.13;5.15;;;10.00;99.90;;;;;;4988563;28;20156;-56
2023/05/24 04:21:22;;;;;;;25.60;5.80;;;9.90;99.90;;;;;;5036186;28;20044;-57
2023/05/24 04:23:48;;;;;;;27.38;5.55;;;10.00;99.90;;;;;;5037683;28;20068;-56
2023/05/24 04:26:14;;;;;;;24.55;5.78;;;10.00;99.90;;;;;;5037612;28;20135;-57
2023/05/24 04:28:41;;;;;;;24.38;5.63;;;10.10;99.90;;;;;;5039172;28;20044;-56
2023/05/24 04:31:08;;;;;;;30.77;5.78;;;10.10;99.90;;;;;;5036316;28;20059;-57
2023/05/24 04:33:33;;;;;;;29.70;5.50;;;10.10;99.90;;;;;;5038322;28;20065;-56
2023/05/24 04:36:00;;;;;;;19.95;5.45;;;10.10;99.90;;;;;;5040266;28;20136;-57
2023/05/24 04:38:37;;;;;;;21.30;5.68;;;10.20;99.90;;;;;;5038880;28;20045;-57
2023/05/24 04:41:04;;;;;;;26.98;5.95;;;10.10;99.90;;;;;;5045768;28;20374;-56
2023/05/24 04:43:31;;;;;;;26.92;5.03;;;10.10;99.90;;;;;;5042052;28;20052;-55
2023/05/24 04:45:56;;;;;;;28.65;6.32;;;10.20;99.90;;;;;;5036995;28;20042;-56
2023/05/24 04:48:23;;;;;;;22.83;5.10;;;10.20;99.90;;;;;;5039621;28;20044;-57
2023/05/24 04:50:57;;;;;;;28.65;5.25;;;10.20;99.90;;;;;;5038694;28;20040;-55
2023/05/24 04:53:24;;;;;;;25.08;4.80;;;10.20;99.90;;;;;;5038468;28;20505;-56
2023/05/24 04:55:50;;;;;;;28.90;5.78;;;10.20;99.90;;;;;;5037374;28;20044;-57
2023/05/24 04:58:16;;;;;;;26.95;5.68;;;10.20;99.90;;;;;;5039340;28;20132;-56
2023/05/24 05:00:42;;;;;;;22.25;5.15;;;10.20;99.90;;;;;;5036812;28;20414;-57
2023/05/24 05:03:08;;;;;;;27.23;5.28;;;10.20;99.90;;;;;;5035621;28;20120;-57
2023/05/24 05:05:34;;;;;;;27.55;5.50;;;10.20;99.90;;;;;;5039284;28;20041;-56
2023/05/24 05:08:00;;;;;;;24.20;4.68;;;10.20;99.90;;;;;;5038949;28;20069;-56
2023/05/24 05:10:26;;;;;;;21.13;5.25;;;10.20;99.90;;;;;;5039953;28;20134;-57
2023/05/24 05:12:52;;;;;;;18.98;5.43;;;10.10;99.90;;;;;;5030471;28;20087;-57
2023/05/24 05:15:21;;;;;;;24.20;5.22;;;10.10;99.90;;;;;;5038277;28;20060;-56
2023/05/24 05:17:47;;;;;;;22.60;5.03;;;10.20;99.90;;;;;;5028100;28;20408;-56
2023/05/24 05:20:12;;;;;;;25.40;5.60;;;10.10;99.90;;;;;;5023833;28;20041;-56
2023/05/24 05:22:38;;;;;;;18.33;5.50;;;10.20;99.90;;;;;;5027811;28;20136;-56
2023/05/24 05:25:04;;;;;;;24.35;5.03;;;10.20;99.90;;;;;;5022158;28;20041;-55
2023/05/24 05:27:30;;;;;;;28.65;4.65;;;10.20;99.90;;;;;;5028041;28;20408;-56
2023/05/24 05:29:55;;;;;;;24.15;5.20;;;10.30;99.90;;;;;;5026461;28;20053;-56
2023/05/24 05:32:21;;;;;;;21.70;5.28;;;10.30;99.90;;;;;;5033827;28;20069;-57
2023/05/24 05:34:47;;;;;;;30.40;6.18;;;10.40;99.90;;;;;;5030040;28;20044;-56
2023/05/24 05:37:13;;;;;;;20.55;5.85;;;10.50;99.90;;;;;;5030742;28;20536;-57
2023/05/24 05:39:38;;;;;;;21.02;5.63;;;10.50;99.90;;;;;;5034560;28;20047;-56
2023/05/24 05:42:04;;;;;;;21.05;4.90;;;10.50;99.90;;;;;;5032507;28;20379;-56
2023/05/24 05:44:30;;;;;;;23.55;5.95;;;10.60;99.90;;;;;;5035093;28;20047;-57
2023/05/24 05:46:56;;;;;;;28.27;5.43;;;10.60;99.90;;;;;;5026477;28;20055;-55
2023/05/24 05:49:21;;;;;;;18.52;4.70;;;10.60;99.90;;;;;;5030515;28;20444;-56
2023/05/24 05:51:47;;;;;;;32.22;5.88;;;10.70;99.90;;;;;;5036074;28;20094;-57
2023/05/24 05:54:14;;;;;;;22.95;5.40;;;10.80;99.90;;;;;;5028156;28;20040;-56
2023/05/24 05:56:44;;;;;;;25.25;5.32;;;10.80;99.90;;;;;;5030700;28;20508;-57
2023/05/24 05:59:16;;;;;;;24.45;5.22;;;10.90;99.90;;;;;;5027337;28;20045;-57
2023/05/24 06:01:44;;;;;;;21.40;5.30;;;11.00;99.90;;;;;;5035510;28;20053;-57
2023/05/24 06:04:10;;;;;;;21.38;5.30;;;11.10;99.90;;;;;;5032969;28;20041;-55
2023/05/24 06:06:36;;;;;;;25.52;4.72;;;11.20;99.90;;;;;;5033813;28;20508;-56
2023/05/24 06:09:02;;;;;;;17.23;4.05;;;11.20;99.90;;;;;;5027171;28;20044;-58
2023/05/24 06:11:28;;;;;;;19.63;4.78;;;11.30;99.90;;;;;;5021253;28;20045;-57
2023/05/24 06:13:53;;;;;;;20.10;4.75;;;11.30;99.90;;;;;;5029061;28;20045;-56
2023/05/24 06:16:20;;;;;;;16.20;4.90;;;11.40;99.90;;;;;;5026973;28;20048;-56
2023/05/24 06:18:46;;;;;;;14.18;4.45;;;11.50;99.90;;;;;;5035299;28;20052;-56
2023/05/24 06:21:13;;;;;;;15.98;4.03;;;11.50;99.90;;;;;;5029435;28;20084;-57
2023/05/24 06:23:39;;;;;;;14.45;3.83;;;11.60;99.90;;;;;;5032868;28;20051;-57
2023/05/24 06:26:09;;;;;;;15.10;4.18;;;11.60;99.90;;;;;;5042902;28;20037;-57
2023/05/24 06:28:38;;;;;;;22.63;4.47;;;11.70;99.90;;;;;;5031441;28;20400;-56
2023/05/24 06:31:04;;;;;;;24.52;4.70;;;11.70;99.90;;;;;;5035688;28;20603;-57
2023/05/24 06:33:33;;;;;;;18.88;4.60;;;11.70;99.90;;;;;;5039770;28;20143;-57
2023/05/24 06:35:59;;;;;;;18.67;4.28;;;11.80;99.90;;;;;;5040968;28;20037;-58
2023/05/24 06:38:26;;;;;;;17.35;3.83;;;11.90;99.90;;;;;;5026398;28;20045;-58
2023/05/24 06:40:52;;;;;;;14.82;3.53;;;11.90;99.90;;;;;;5040323;28;20493;-57
2023/05/24 06:43:19;;;;;;;18.52;3.95;;;12.00;99.90;;;;;;5037973;28;20056;-55
2023/05/24 06:45:45;;;;;;;17.13;4.15;;;12.10;99.90;;;;;;5039998;28;20033;-57
2023/05/24 06:48:11;;;;;;;17.52;4.43;;;12.00;99.90;;;;;;5038915;28;20446;-57
2023/05/24 06:50:37;;;;;;;22.02;4.38;;;12.10;99.90;;;;;;5043449;28;20072;-58
2023/05/24 06:53:03;;;;;;;19.48;4.47;;;12.10;99.90;;;;;;5045090;28;20037;-57
2023/05/24 06:55:28;;;;;;;22.60;5.20;;;12.10;99.90;;;;;;5025771;28;20060;-56
2023/05/24 06:57:54;;;;;;;19.30;4.30;;;12.10;99.90;;;;;;5044076;28;20084;-57
2023/05/24 07:00:21;;;;;;;21.33;4.60;;;12.20;99.90;;;;;;5041992;28;20052;-58
2023/05/24 07:02:46;;;;;;;17.38;4.22;;;12.20;99.90;;;;;;5043031;28;20045;-58
2023/05/24 07:05:12;;;;;;;18.02;4.20;;;12.20;99.90;;;;;;5041435;28;20048;-56
2023/05/24 07:07:39;;;;;;;23.25;4.57;;;12.20;99.90;;;;;;5034902;28;20537;-57
2023/05/24 07:10:09;;;;;;;22.92;4.80;;;12.30;99.90;;;;;;5036133;28;22058;-58
2023/05/24 07:12:38;;;;;;;15.45;4.82;;;12.30;99.90;;;;;;5033284;28;20112;-57
2023/05/24 07:15:06;;;;;;;20.73;4.63;;;12.40;99.90;;;;;;5033960;28;20032;-56
2023/05/24 07:17:31;;;;;;;22.23;4.30;;;12.40;99.90;;;;;;5037859;28;20062;-57
2023/05/24 07:19:58;;;;;;;18.42;5.03;;;12.50;99.90;;;;;;5035513;28;20485;-58
2023/05/24 07:22:27;;;;;;;23.40;4.28;;;12.60;99.90;;;;;;5033164;28;20045;-57
2023/05/24 07:24:53;;;;;;;21.55;4.85;;;12.60;99.90;;;;;;5032457;28;20040;-57
2023/05/24 07:27:19;;;;;;;23.23;4.57;;;12.60;99.90;;;;;;5031173;28;20041;-57
2023/05/24 07:29:45;;;;;;;23.33;4.57;;;12.60;99.90;;;;;;5029682;28;20401;-57
2023/05/24 07:32:11;;;;;;;20.23;4.43;;;12.60;99.90;;;;;;5032367;28;20073;-58
2023/05/24 07:34:38;;;;;;;17.27;4.90;;;12.70;99.90;;;;;;5036784;28;20041;-57
2023/05/24 07:37:04;;;;;;;19.33;4.60;;;12.90;99.90;;;;;;5032208;28;20064;-56
2023/05/24 07:39:30;;;;;;;24.73;4.85;;;13.10;99.90;;;;;;5029142;28;20176;-57
2023/05/24 07:41:56;;;;;;;27.92;5.50;;;13.30;99.90;;;;;;5035252;28;21136;-57
2023/05/24 07:44:23;;;;;;;19.23;4.43;;;13.30;99.90;;;;;;5040232;28;21042;-57
2023/05/24 07:46:48;;;;;;;18.15;3.88;;;13.20;99.90;;;;;;5026861;28;20077;-58
2023/05/24 07:49:14;;;;;;;17.63;4.38;;;13.20;99.90;;;;;;5033892;28;20137;-56
2023/05/24 07:51:40;;;;;;;14.90;3.90;;;13.20;99.90;;;;;;5034668;28;20061;-57
2023/05/24 07:54:06;;;;;;;12.95;3.70;;;13.20;99.90;;;;;;5028895;28;20044;-55
2023/05/24 07:56:32;;;;;;;11.93;3.83;;;13.20;99.90;;;;;;5035530;28;20084;-58
2023/05/24 07:59:04;;;;;;;13.20;4.00;;;13.10;99.90;;;;;;5030279;28;20068;-57
2023/05/24 08:01:39;;;;;;;11.90;3.78;;;13.10;99.90;;;;;;5028617;28;20045;-57
2023/05/24 08:04:07;;;;;;;16.70;3.92;;;13.10;99.90;;;;;;5030785;28;20041;-56
2023/05/24 08:06:33;;;;;;;11.30;3.65;;;13.10;99.90;;;;;;5040127;28;20568;-57
2023/05/24 08:09:00;;;;;;;9.55;3.10;;;13.20;99.90;;;;;;5034550;28;20049;-57
2023/05/24 08:11:26;;;;;;;14.32;3.20;;;13.30;99.90;;;;;;5036862;28;20555;-57
2023/05/24 08:13:52;;;;;;;10.60;3.38;;;13.40;99.90;;;;;;5030848;28;20041;-57
2023/05/24 08:16:18;;;;;;;11.88;2.78;;;13.40;99.90;;;;;;5031038;28;20417;-57
2023/05/24 08:18:43;;;;;;;8.10;2.70;;;13.60;99.90;;;;;;5031161;28;20118;-57
2023/05/24 08:21:09;;;;;;;11.02;3.00;;;13.80;99.90;;;;;;5033348;28;20342;-57
2023/05/24 08:23:35;;;;;;;9.45;2.80;;;13.90;99.90;;;;;;5039169;28;20041;-57
2023/05/24 08:26:01;;;;;;;12.50;3.88;;;14.00;99.90;;;;;;5034533;28;20406;-58
2023/05/24 08:28:28;;;;;;;8.35;3.22;;;14.00;99.90;;;;;;5035225;28;20486;-57
2023/05/24 08:30:53;;;;;;;9.18;2.95;;;14.30;99.90;;;;;;5034766;28;20045;-58
2023/05/24 08:33:21;;;;;;;13.05;3.42;;;14.40;99.90;;;;;;5036525;28;20449;-58
2023/05/24 08:35:48;;;;;;;11.43;3.20;;;14.60;99.90;;;;;;5034082;28;20083;-57
2023/05/24 08:38:14;;;;;;;15.32;3.53;;;14.60;99.90;;;;;;5055196;28;20057;-57
2023/05/24 08:40:39;;;;;;;9.13;3.60;;;14.60;99.90;;;;;;5038772;28;20670;-57
2023/05/24 08:43:10;;;;;;;14.20;3.65;;;14.60;99.90;;;;;;5018253;28;20040;-57
2023/05/24 08:45:37;;;;;;;11.35;3.38;;;14.50;99.90;;;;;;5034758;28;20044;-58
2023/05/24 08:48:05;;;;;;;20.10;3.83;;;14.50;99.90;;;;;;5031778;28;20048;-57
2023/05/24 08:50:33;;;;;;;12.38;3.65;;;14.50;99.90;;;;;;5024616;28;20045;-58
2023/05/24 08:53:01;;;;;;;10.77;3.28;;;14.70;99.90;;;;;;5035616;28;20128;-58
2023/05/24 08:55:28;;;;;;;9.05;2.95;;;14.80;99.90;;;;;;5038198;28;20045;-58
2023/05/24 08:57:55;;;;;;;13.55;3.92;;;14.70;99.90;;;;;;5032171;28;20061;-56
2023/05/24 09:00:21;;;;;;;13.60;3.60;;;14.80;99.90;;;;;;5030774;28;20053;-56
2023/05/24 09:02:48;;;;;;;13.52;3.58;;;14.80;99.90;;;;;;5036913;28;20033;-57
2023/05/24 09:05:15;;;;;;;16.23;3.55;;;14.80;99.90;;;;;;5037890;28;20040;-58
2023/05/24 09:07:43;;;;;;;13.43;3.72;;;14.70;99.90;;;;;;5035739;28;20060;-58
2023/05/24 09:10:10;;;;;;;12.60;3.63;;;14.70;99.90;;;;;;5036797;28;20443;-57
2023/05/24 09:12:38;;;;;;;10.43;3.45;;;14.60;99.90;;;;;;5039242;28;20053;-57
2023/05/24 09:15:05;;;;;;;11.02;3.08;;;14.50;99.90;;;;;;5034330;28;20056;-58
2023/05/24 09:17:31;;;;;;;10.60;3.50;;;14.50;99.90;;;;;;5036844;28;20529;-57
2023/05/24 09:20:00;;;;;;;11.60;3.35;;;14.50;99.90;;;;;;5035402;28;20041;-58
2023/05/24 09:22:29;;;;;;;12.93;3.60;;;14.60;99.90;;;;;;5031849;28;20033;-57
2023/05/24 09:25:00;;;;;;;12.85;3.95;;;14.50;99.90;;;;;;5030820;28;20038;-57
2023/05/24 09:27:26;;;;;;;13.07;3.70;;;14.50;99.90;;;;;;5035380;28;20037;-57
2023/05/24 09:29:54;;;;;;;15.10;3.25;;;14.50;99.90;;;;;;5034719;28;20481;-57
2023/05/24 09:32:23;;;;;;;7.45;3.58;;;14.50;99.90;;;;;;5038859;28;20049;-58
2023/05/24 09:34:54;;;;;;;8.27;3.05;;;14.50;99.90;;;;;;5035877;28;20044;-58
2023/05/24 09:37:28;;;;;;;10.60;3.33;;;14.50;99.90;;;;;;5033512;28;20037;-57
2023/05/24 09:39:54;;;;;;;19.05;3.78;;;14.50;99.90;;;;;;5032147;28;20300;-58
2023/05/24 09:42:26;;;;;;;12.90;3.63;;;14.60;99.90;;;;;;5035124;28;20201;-56
2023/05/24 09:45:11;;;;;;;9.27;2.95;;;14.70;99.90;;;;;;5035707;28;20056;-57
2023/05/24 09:47:40;;;;;;;10.93;3.33;;;14.70;99.90;;;;;;5035771;28;20080;-58
2023/05/24 09:50:12;;;;;;;12.43;3.75;;;14.70;99.90;;;;;;5016538;28;20135;-57
2023/05/24 09:52:38;;;;;;;16.97;3.83;;;14.70;99.90;;;;;;5013895;28;20439;-57
2023/05/24 09:55:34;;;;;;;12.30;3.97;;;14.70;99.90;;;;;;5037525;28;20055;-57
2023/05/24 09:58:03;;;;;;;9.95;3.20;;;14.80;99.90;;;;;;5031759;28;20497;-58
2023/05/24 10:00:29;;;;;;;10.48;2.78;;;14.90;99.90;;;;;;5025391;28;20053;-58
2023/05/24 10:03:03;;;;;;;14.10;3.83;;;14.90;99.90;;;;;;5035298;28;20106;-58
2023/05/24 10:05:29;;;;;;;16.95;3.88;;;15.00;99.90;;;;;;5034455;28;20041;-58
2023/05/24 10:07:59;;;;;;;13.68;3.67;;;15.00;99.90;;;;;;5036017;28;20053;-57
2023/05/24 10:10:31;;;;;;;13.50;3.80;;;14.90;99.90;;;;;;5036111;28;20047;-58
2023/05/24 10:12:58;;;;;;;16.45;3.90;;;14.90;99.90;;;;;;5033515;28;20044;-58
2023/05/24 10:15:25;;;;;;;14.25;3.72;;;14.90;99.90;;;;;;5030817;28;20144;-58
2023/05/24 10:17:52;;;;;;;16.88;3.90;;;14.90;99.90;;;;;;5035961;28;20039;-57
2023/05/24 10:20:18;;;;;;;13.50;3.85;;;14.80;99.90;;;;;;5032252;28;20044;-58
2023/05/24 10:22:46;;;;;;;15.38;4.18;;;14.80;99.90;;;;;;5031082;28;20531;-57
2023/05/24 10:25:21;;;;;;;16.10;4.18;;;14.70;99.90;;;;;;5031622;28;20045;-56
2023/05/24 10:27:50;;;;;;;20.30;3.83;;;14.60;99.90;;;;;;5027963;28;20059;-57
2023/05/24 10:30:43;;;;;;;22.40;3.80;;;14.50;99.90;;;;;;5030125;28;20037;-57
2023/05/24 10:33:12;;;;;;;17.35;4.90;;;14.50;99.90;;;;;;5017494;28;20065;-58
2023/05/24 10:35:39;;;;;;;21.70;5.20;;;14.40;99.90;;;;;;5030754;28;20258;-58
2023/05/24 10:38:08;;;;;;;17.98;4.50;;;14.40;99.90;;;;;;5031105;28;20044;-57
2023/05/24 10:40:39;;;;;;;18.00;4.88;;;14.50;99.90;;;;;;5030126;28;20049;-57
2023/05/24 10:43:06;;;;;;;16.52;4.35;;;14.60;99.90;;;;;;5032873;28;20049;-58
2023/05/24 10:45:40;;;;;;;20.98;4.68;;;14.70;99.90;;;;;;5027914;28;20084;-57
2023/05/24 10:48:12;;;;;;;21.02;4.55;;;14.70;99.90;;;;;;5031321;28;20048;-57
2023/05/24 10:50:38;;;;;;;16.10;3.85;;;14.80;99.90;;;;;;5026560;28;20047;-58
2023/05/24 10:53:14;;;;;;;12.85;3.83;;;14.90;99.90;;;;;;5027210;28;20051;-57
2023/05/24 10:56:02;;;;;;;15.93;5.05;;;15.00;99.90;;;;;;5029619;28;20080;-58
2023/05/24 10:58:31;;;;;;;16.75;4.35;;;15.20;99.90;;;;;;5035153;28;20067;-58
2023/05/24 11:00:57;;;;;;;15.88;4.38;;;15.50;99.90;;;;;;5035702;28;20049;-57
2023/05/24 11:03:24;;;;;;;18.90;4.50;;;15.70;99.90;;;;;;5035657;28;20041;-58
2023/05/24 11:05:53;;;;;;;18.90;4.80;;;15.70;99.90;;;;;;5031495;28;20661;-58
2023/05/24 11:08:26;;;;;;;12.73;3.70;;;15.60;99.90;;;;;;5032049;28;20400;-58
2023/05/24 11:11:22;;;;;;;;;;;15.40;99.90;;;;;;5039130;28;20068;-56
2023/05/24 11:13:48;;;;;;;13.65;3.65;;;15.30;99.90;;;;;;5026599;28;20385;-57
2023/05/24 11:16:35;;;;;;;12.73;3.67;;;15.20;99.90;;;;;;5028303;28;20053;-58
2023/05/24 11:19:22;;;;;;;12.70;3.00;;;15.20;99.90;;;;;;5028008;28;20556;-58
2023/05/24 11:21:50;;;;;;;12.52;3.30;;;15.20;99.90;;;;;;5032290;28;20037;-57
2023/05/24 11:24:17;;;;;;;9.07;2.80;;;15.20;99.90;;;;;;5031638;28;20111;-57
2023/05/24 11:26:44;;;;;;;13.18;3.50;;;15.30;99.90;;;;;;5036168;28;20120;-58
2023/05/24 11:29:16;;;;;;;15.80;3.22;;;15.50;99.90;;;;;;5034412;28;20052;-58
2023/05/24 11:31:51;;;;;;;13.70;3.27;;;15.60;99.90;;;;;;5035335;28;20119;-58
2023/05/24 11:34:18;;;;;;;13.20;3.78;;;15.50;99.90;;;;;;5015239;28;20304;-59
2023/05/24 11:36:45;;;;;;;16.73;3.60;;;15.40;99.90;;;;;;5030924;28;20045;-59
2023/05/24 11:39:12;;;;;;;19.02;4.20;;;15.60;99.90;;;;;;5028127;28;20147;-60
2023/05/24 11:41:38;;;;;;;10.50;3.38;;;15.60;99.90;;;;;;5030801;28;20493;-58
2023/05/24 11:44:07;;;;;;;13.70;3.17;;;15.60;99.50;;;;;;5026831;28;20041;-57
2023/05/24 11:46:33;;;;;;;11.07;3.63;;;15.60;99.90;;;;;;5031561;28;20055;-59
2023/05/24 11:48:59;;;;;;;18.85;3.70;;;15.70;99.90;;;;;;5029317;28;20140;-57
2023/05/24 11:51:29;;;;;;;11.52;3.67;;;16.10;99.50;;;;;;5033129;28;20120;-58
2023/05/24 11:53:57;;;;;;;12.57;3.35;;;16.40;98.80;;;;;;5034627;28;20056;-59
2023/05/24 11:56:29;;;;;;;10.80;3.08;;;16.60;98.70;;;;;;5033386;28;20384;-58
2023/05/24 11:59:16;;;;;;;13.00;3.23;;;16.50;98.10;;;;;;5031178;28;20060;-57
2023/05/24 12:01:43;;;;;;;11.90;3.13;;;16.30;97.80;;;;;;5031552;28;20316;-59
2023/05/24 12:04:10;;;;;;;9.30;2.97;;;16.10;97.90;;;;;;5031633;28;20059;-58
2023/05/24 12:06:41;;;;;;;13.18;3.08;;;15.90;98.30;;;;;;5030768;28;20139;-58
2023/05/24 12:09:11;;;;;;;11.88;2.92;;;15.80;98.30;;;;;;5033664;28;20566;-58
2023/05/24 12:11:41;;;;;;;12.38;3.35;;;15.80;98.70;;;;;;5020409;28;20035;-59
2023/05/24 12:14:15;;;;;;;15.38;3.67;;;15.70;98.80;;;;;;5032954;28;20038;-59
2023/05/24 12:16:42;;;;;;;13.75;3.40;;;15.70;99.00;;;;;;5030350;28;20417;-59
2023/05/24 12:19:15;;;;;;;9.70;3.30;;;15.80;99.00;;;;;;5031639;28;20408;-58
2023/05/24 12:21:41;;;;;;;23.85;3.67;;;15.90;99.10;;;;;;5031792;28;20123;-58
2023/05/24 12:24:12;;;;;;;13.18;2.90;;;15.90;98.90;;;;;;5032741;28;20048;-58
2023/05/24 12:26:46;;;;;;;13.90;3.08;;;15.80;98.80;;;;;;5036237;28;20052;-58
2023/05/24 12:29:13;;;;;;;8.20;3.05;;;15.80;98.80;;;;;;5031294;28;20045;-59
2023/05/24 12:31:47;;;;;;;10.23;2.85;;;15.70;98.70;;;;;;5031910;28;20661;-57
2023/05/24 12:34:20;;;;;;;13.57;3.85;;;15.70;98.70;;;;;;5029385;28;20041;-58
2023/05/24 12:36:46;;;;;;;14.50;3.53;;;16.00;99.70;;;;;;5031555;28;20038;-58
2023/05/24 12:39:35;;;;;;;16.45;3.60;;;16.30;99.20;;;;;;5033299;28;20040;-59
2023/05/24 12:42:01;;;;;;;14.95;3.47;;;16.30;98.70;;;;;;5031977;28;20040;-58
2023/05/24 12:44:36;;;;;;;16.38;2.90;;;16.20;98.30;;;;;;5022598;28;20106;-58
2023/05/24 12:47:03;;;;;;;13.07;3.30;;;16.00;98.50;;;;;;5028165;28;20041;-58
2023/05/24 12:49:30;;;;;;;14.70;3.63;;;16.00;98.90;;;;;;5035742;28;20037;-57